Time;durP1;ratioP1;P1;durP2;ratioP2;P2;SDS_P1;SDS_P2;PMS_P1;PMS_P2;Temp;Humidity;BMP_temperature;BMP_pressure;BME280_temperature;BME280_humidity;BME280_pressure;Samples;Min_cycle;Max_cycle;Signal;HPM_P1;HPM_P2
2022/01/03 00:00:21;;;;;;;14.00;5.60;;;9.80;99.90;;;;;;4999604;28;20030;-73
2022/01/03 00:02:47;;;;;;;14.87;6.60;;;9.80;99.90;;;;;;4997370;28;20025;-73
2022/01/03 00:05:13;;;;;;;18.45;5.95;;;9.80;99.90;;;;;;5000108;28;20022;-73
2022/01/03 00:07:43;;;;;;;15.80;6.50;;;9.70;99.90;;;;;;4998071;28;20112;-73
2022/01/03 00:10:11;;;;;;;19.42;6.95;;;9.70;99.90;;;;;;5000473;28;20022;-73
2022/01/03 00:12:38;;;;;;;18.10;6.78;;;9.60;99.90;;;;;;4999641;28;20024;-73
2022/01/03 00:15:06;;;;;;;16.63;6.88;;;9.60;99.90;;;;;;4999498;28;20045;-73
2022/01/03 00:17:32;;;;;;;17.73;6.80;;;9.60;99.90;;;;;;4983159;28;20025;-73
2022/01/03 00:19:57;;;;;;;23.15;7.10;;;9.60;99.90;;;;;;4999853;28;20038;-73
2022/01/03 00:22:24;;;;;;;15.00;5.35;;;9.60;99.90;;;;;;4979859;28;20480;-72
2022/01/03 00:25:04;;;;;;;15.82;5.57;;;9.60;99.90;;;;;;4998390;28;20034;-73
2022/01/03 00:27:58;;;;;;;13.13;5.35;;;9.60;99.90;;;;;;4980304;28;20492;-73
2022/01/03 00:30:25;;;;;;;14.63;4.07;;;9.60;99.90;;;;;;4998963;28;20033;-72
2022/01/03 00:32:52;;;;;;;12.82;3.95;;;9.50;99.90;;;;;;5002583;28;20022;-73
2022/01/03 00:35:21;;;;;;;9.40;3.72;;;9.50;99.90;;;;;;4998661;28;20030;-73
2022/01/03 00:37:48;;;;;;;11.02;3.35;;;9.50;99.90;;;;;;4997291;28;20026;-73
2022/01/03 00:40:15;;;;;;;8.95;2.95;;;9.40;99.90;;;;;;4998042;28;20029;-73
2022/01/03 00:42:41;;;;;;;8.15;2.80;;;9.40;99.90;;;;;;4996380;28;20026;-72
2022/01/03 00:45:08;;;;;;;9.30;2.80;;;9.30;99.90;;;;;;4980219;28;20499;-73
2022/01/03 00:47:34;;;;;;;7.72;2.20;;;9.30;99.90;;;;;;4997994;28;20033;-73
2022/01/03 00:50:12;;;;;;;5.90;2.40;;;9.30;99.90;;;;;;4996663;28;20025;-73
2022/01/03 00:52:39;;;;;;;8.07;2.03;;;9.30;99.90;;;;;;4987134;28;20102;-72
2022/01/03 00:55:06;;;;;;;5.00;1.67;;;9.30;99.90;;;;;;5000560;28;20034;-73
2022/01/03 00:57:51;;;;;;;5.18;1.60;;;9.30;99.90;;;;;;4996975;28;20114;-73
2022/01/03 01:00:18;;;;;;;5.55;1.58;;;9.30;99.90;;;;;;4978391;28;20045;-73
2022/01/03 01:02:54;;;;;;;7.00;1.58;;;9.30;99.90;;;;;;4980237;28;20026;-73
2022/01/03 01:05:21;;;;;;;7.75;1.60;;;9.20;99.90;;;;;;4998328;28;20033;-73
2022/01/03 01:07:52;;;;;;;3.67;1.30;;;9.20;99.90;;;;;;4997116;28;20507;-73
2022/01/03 01:10:18;;;;;;;4.50;1.20;;;9.10;99.90;;;;;;4995585;28;20093;-73
2022/01/03 01:12:46;;;;;;;3.65;1.35;;;9.10;99.90;;;;;;4995991;28;20405;-73
2022/01/03 01:15:14;;;;;;;6.55;1.40;;;9.10;99.90;;;;;;4998688;28;20113;-73
2022/01/03 01:17:41;;;;;;;2.60;1.00;;;9.10;99.90;;;;;;4997349;28;20069;-73
2022/01/03 01:20:08;;;;;;;6.57;1.10;;;9.10;99.90;;;;;;4997900;28;20489;-73
2022/01/03 01:22:35;;;;;;;4.63;1.20;;;9.00;99.90;;;;;;4980869;28;20484;-72
2022/01/03 01:25:24;;;;;;;3.38;0.90;;;9.00;99.90;;;;;;4993351;28;20022;-72
2022/01/03 01:27:49;;;;;;;6.28;1.00;;;9.00;99.90;;;;;;4995211;28;20022;-73
2022/01/03 01:30:26;;;;;;;2.80;0.90;;;8.90;99.90;;;;;;4963561;28;20026;-73
2022/01/03 01:33:02;;;;;;;3.47;0.98;;;8.90;99.90;;;;;;4997371;28;20027;-73
2022/01/03 01:35:53;;;;;;;4.70;0.98;;;8.90;99.90;;;;;;4997821;28;20057;-74
2022/01/03 01:38:24;;;;;;;3.80;1.08;;;8.90;99.90;;;;;;4994764;28;20109;-74
2022/01/03 01:40:55;;;;;;;5.03;1.27;;;8.80;99.90;;;;;;4996961;28;20120;-73
2022/01/03 01:43:39;;;;;;;4.40;1.20;;;8.90;99.90;;;;;;4976022;28;20458;-72
2022/01/03 01:46:13;;;;;;;5.22;1.90;;;8.90;99.90;;;;;;4976845;28;20131;-73
2022/01/03 01:48:43;;;;;;;5.53;1.40;;;9.00;99.90;;;;;;4966412;28;20089;-72
2022/01/03 01:51:12;;;;;;;4.50;1.60;;;9.00;99.90;;;;;;4962498;28;20504;-74
2022/01/03 01:54:11;;;;;;;4.63;1.67;;;9.00;99.90;;;;;;4997587;28;20061;-73
2022/01/03 01:57:01;;;;;;;1.98;1.30;;;8.90;99.90;;;;;;4975395;28;20033;-73
2022/01/03 01:59:54;;;;;;;5.88;1.50;;;8.90;99.90;;;;;;4996095;28;20021;-72
2022/01/03 02:02:32;;;;;;;4.13;1.83;;;8.80;99.90;;;;;;4995903;28;20026;-73
2022/01/03 02:05:16;;;;;;;4.22;1.80;;;8.80;99.90;;;;;;4997952;28;20034;-73
2022/01/03 02:07:51;;;;;;;2.38;1.30;;;8.70;99.90;;;;;;4998551;28;20471;-72
2022/01/03 02:10:17;;;;;;;4.30;1.90;;;8.70;99.90;;;;;;4995708;28;20038;-72
2022/01/03 02:12:49;;;;;;;3.33;1.38;;;8.80;99.90;;;;;;4997485;28;20035;-72
2022/01/03 02:15:17;;;;;;;2.75;1.60;;;8.80;99.90;;;;;;4997266;28;20029;-72
2022/01/03 02:17:47;;;;;;;6.95;1.67;;;8.70;99.90;;;;;;4996220;28;20022;-72
2022/01/03 02:20:16;;;;;;;2.92;1.40;;;8.70;99.90;;;;;;4996972;28;20026;-72
2022/01/03 02:22:44;;;;;;;5.28;1.73;;;8.60;99.90;;;;;;4997579;28;20080;-72
2022/01/03 02:25:13;;;;;;;6.50;1.45;;;8.60;99.90;;;;;;4992871;28;20122;-72
2022/01/03 02:27:39;;;;;;;4.40;1.63;;;8.60;99.90;;;;;;4996571;28;20024;-73
2022/01/03 02:30:09;;;;;;;9.55;2.17;;;8.50;99.90;;;;;;4997096;28;20033;-72
2022/01/03 02:32:35;;;;;;;2.50;1.30;;;8.50;99.90;;;;;;4996196;28;20515;-72
2022/01/03 02:35:02;;;;;;;5.47;1.98;;;8.50;99.90;;;;;;4994907;28;20038;-72
2022/01/03 02:37:28;;;;;;;3.95;1.60;;;8.40;99.90;;;;;;4996038;28;20038;-72
2022/01/03 02:39:54;;;;;;;4.35;1.60;;;8.40;99.90;;;;;;4993943;28;20021;-72
2022/01/03 02:42:23;;;;;;;6.22;1.90;;;8.40;99.90;;;;;;4992837;28;20261;-72
2022/01/03 02:44:59;;;;;;;5.78;1.80;;;8.30;99.90;;;;;;4994874;28;20109;-73
2022/01/03 02:47:25;;;;;;;4.68;1.98;;;8.40;99.90;;;;;;4975473;28;20415;-72
2022/01/03 02:49:50;;;;;;;7.50;1.75;;;8.30;99.90;;;;;;4994868;28;20098;-72
2022/01/03 02:52:16;;;;;;;5.00;1.50;;;8.30;99.90;;;;;;4996199;28;20104;-72
2022/01/03 02:54:42;;;;;;;3.03;1.35;;;8.30;99.90;;;;;;4979312;28;20028;-72
2022/01/03 02:57:08;;;;;;;10.88;1.42;;;8.30;99.90;;;;;;4998394;28;20117;-72
2022/01/03 02:59:34;;;;;;;7.75;1.60;;;8.30;99.90;;;;;;4998369;28;20041;-72
2022/01/03 03:02:01;;;;;;;4.90;1.40;;;8.30;99.90;;;;;;4996407;28;20042;-72
2022/01/03 03:04:26;;;;;;;5.88;1.30;;;8.20;99.90;;;;;;4997251;28;20036;-71
2022/01/03 03:06:52;;;;;;;6.05;1.17;;;8.20;99.90;;;;;;4995723;28;20030;-72
2022/01/03 03:09:20;;;;;;;7.03;1.63;;;8.20;99.90;;;;;;4999010;28;20033;-72
2022/01/03 03:11:45;;;;;;;8.55;1.95;;;8.20;99.90;;;;;;4995224;28;20358;-71
2022/01/03 03:14:11;;;;;;;6.85;1.73;;;8.20;99.90;;;;;;4999238;28;20106;-71
2022/01/03 03:16:37;;;;;;;7.18;1.90;;;8.20;99.90;;;;;;4997396;28;20810;-71
2022/01/03 03:19:03;;;;;;;4.85;1.52;;;8.20;99.90;;;;;;4997569;28;20092;-71
2022/01/03 03:21:30;;;;;;;9.70;2.00;;;8.20;99.90;;;;;;4995675;28;20026;-72
2022/01/03 03:23:57;;;;;;;7.88;1.92;;;8.20;99.90;;;;;;4997005;28;20034;-71
2022/01/03 03:26:23;;;;;;;8.93;1.80;;;8.20;99.90;;;;;;4996682;28;20026;-72
2022/01/03 03:28:49;;;;;;;7.55;1.55;;;8.20;99.90;;;;;;4995517;28;20024;-72
2022/01/03 03:31:15;;;;;;;7.95;2.38;;;8.10;99.90;;;;;;4992810;28;20064;-72
2022/01/03 03:33:40;;;;;;;10.15;2.85;;;8.20;99.90;;;;;;4976021;28;20057;-71
2022/01/03 03:36:06;;;;;;;10.93;3.17;;;8.10;99.90;;;;;;4995571;28;20439;-71
2022/01/03 03:38:32;;;;;;;12.73;3.55;;;8.20;99.90;;;;;;4994398;28;20111;-71
2022/01/03 03:40:59;;;;;;;12.70;3.20;;;8.20;99.90;;;;;;4994954;28;20092;-71
2022/01/03 03:43:25;;;;;;;12.38;3.08;;;8.20;99.90;;;;;;4993443;28;20026;-71
2022/01/03 03:45:51;;;;;;;8.70;3.10;;;8.20;99.90;;;;;;4996548;28;20029;-71
2022/01/03 03:48:19;;;;;;;16.58;3.42;;;8.20;99.90;;;;;;4994285;28;20027;-71
2022/01/03 03:50:46;;;;;;;11.35;2.70;;;8.20;99.90;;;;;;4993523;28;20597;-72
2022/01/03 03:53:12;;;;;;;12.88;3.33;;;8.20;99.90;;;;;;4994293;28;20037;-71
2022/01/03 03:55:39;;;;;;;13.85;2.67;;;8.20;99.90;;;;;;4977959;28;20022;-72
2022/01/03 03:58:05;;;;;;;10.70;2.85;;;8.30;99.90;;;;;;5001034;28;20549;-72
2022/01/03 04:00:31;;;;;;;12.00;2.75;;;8.30;99.90;;;;;;4999571;28;20038;-71
2022/01/03 04:02:57;;;;;;;13.90;2.55;;;8.30;99.90;;;;;;4999434;28;20074;-71
2022/01/03 04:05:23;;;;;;;14.05;2.78;;;8.30;99.90;;;;;;5000658;28;20031;-71
2022/01/03 04:07:49;;;;;;;14.77;2.60;;;8.30;99.90;;;;;;5000185;28;20026;-71
2022/01/03 04:10:16;;;;;;;16.75;3.60;;;8.20;99.90;;;;;;5000891;28;20414;-71
2022/01/03 04:12:43;;;;;;;14.48;2.90;;;8.30;99.90;;;;;;4998949;28;20096;-72
2022/01/03 04:15:09;;;;;;;11.68;3.20;;;8.30;99.90;;;;;;5000513;28;20403;-72
2022/01/03 04:17:35;;;;;;;15.82;3.10;;;8.40;99.90;;;;;;4997647;28;20500;-71
2022/01/03 04:20:01;;;;;;;22.30;4.72;;;8.30;99.90;;;;;;5000161;28;20044;-71
2022/01/03 04:22:27;;;;;;;13.70;3.22;;;8.30;99.90;;;;;;4999756;28;20033;-71
2022/01/03 04:24:53;;;;;;;16.25;3.20;;;8.40;99.90;;;;;;4998189;28;20037;-71
2022/01/03 04:27:19;;;;;;;14.75;3.30;;;8.40;99.90;;;;;;4998471;28;20022;-71
2022/01/03 04:29:44;;;;;;;10.55;2.53;;;8.40;99.90;;;;;;5000493;28;20472;-72
2022/01/03 04:32:10;;;;;;;19.95;3.58;;;8.40;99.90;;;;;;4998945;28;20105;-71
2022/01/03 04:34:36;;;;;;;13.57;3.17;;;8.40;99.90;;;;;;4998782;28;20034;-72
2022/01/03 04:37:02;;;;;;;16.63;3.25;;;8.40;99.90;;;;;;4998169;28;20026;-71
2022/01/03 04:39:27;;;;;;;19.15;4.10;;;8.40;99.90;;;;;;5000170;28;20030;-72
2022/01/03 04:41:53;;;;;;;10.98;3.00;;;8.40;99.90;;;;;;4997102;28;20396;-71
2022/01/03 04:44:19;;;;;;;29.13;4.75;;;8.40;99.90;;;;;;4995767;28;20038;-71
2022/01/03 04:46:45;;;;;;;11.75;2.83;;;8.40;99.90;;;;;;4996100;28;20050;-73
2022/01/03 04:49:11;;;;;;;11.73;3.08;;;8.50;99.90;;;;;;4997857;28;20176;-72
2022/01/03 04:51:37;;;;;;;20.90;3.75;;;8.50;99.90;;;;;;4995392;28;20491;-71
2022/01/03 04:54:03;;;;;;;18.13;3.13;;;8.40;99.90;;;;;;4996919;28;20510;-72
2022/01/03 04:56:29;;;;;;;12.95;2.85;;;8.40;99.90;;;;;;4962716;28;20506;-72
2022/01/03 04:58:56;;;;;;;21.63;3.95;;;8.50;99.90;;;;;;4998524;28;20034;-72
2022/01/03 05:01:23;;;;;;;23.88;3.78;;;8.50;99.90;;;;;;4996653;28;20088;-71
2022/01/03 05:03:50;;;;;;;14.95;3.60;;;8.50;99.90;;;;;;4996902;28;20076;-71
2022/01/03 05:06:17;;;;;;;15.90;3.58;;;8.50;99.90;;;;;;4977697;28;20112;-72
2022/01/03 05:08:43;;;;;;;22.23;4.20;;;8.50;99.90;;;;;;4998860;28;20029;-71
2022/01/03 05:11:09;;;;;;;16.50;3.90;;;8.60;99.90;;;;;;4999108;28;20475;-71
2022/01/03 05:13:35;;;;;;;18.73;3.50;;;8.50;99.90;;;;;;4996651;28;20026;-71
2022/01/03 05:16:01;;;;;;;16.27;4.05;;;8.60;99.90;;;;;;4997778;28;20047;-71
2022/01/03 05:18:28;;;;;;;12.73;2.97;;;8.60;99.90;;;;;;4997456;28;20033;-71
2022/01/03 05:20:54;;;;;;;11.30;2.75;;;8.60;99.90;;;;;;4996889;28;20424;-71
2022/01/03 05:23:19;;;;;;;22.38;3.47;;;8.60;99.90;;;;;;4996737;28;20030;-71
2022/01/03 05:25:46;;;;;;;20.38;3.42;;;8.60;99.90;;;;;;4997108;28;20022;-71
2022/01/03 05:28:12;;;;;;;11.20;3.08;;;8.60;99.90;;;;;;5000391;28;20073;-71
2022/01/03 05:30:37;;;;;;;19.48;3.78;;;8.60;99.90;;;;;;4997533;28;20057;-71
2022/01/03 05:33:03;;;;;;;24.40;3.30;;;8.60;99.90;;;;;;4980541;28;20034;-72
2022/01/03 05:35:29;;;;;;;18.17;3.83;;;8.60;99.90;;;;;;5001746;28;20030;-72
2022/01/03 05:37:55;;;;;;;25.83;3.75;;;8.60;99.90;;;;;;4999042;28;20038;-71
2022/01/03 05:40:21;;;;;;;17.42;3.65;;;8.60;99.90;;;;;;4996032;28;20079;-72
2022/01/03 05:42:46;;;;;;;16.23;2.80;;;8.60;99.90;;;;;;4998002;28;20026;-73
2022/01/03 05:45:13;;;;;;;22.13;4.25;;;8.60;99.90;;;;;;4996993;28;21335;-71
2022/01/03 05:47:42;;;;;;;24.55;3.88;;;8.60;99.90;;;;;;4976793;28;20080;-71
2022/01/03 05:50:08;;;;;;;24.10;4.22;;;8.70;99.90;;;;;;4996935;28;20030;-72
2022/01/03 05:52:34;;;;;;;28.98;3.95;;;8.60;99.90;;;;;;4996199;28;20038;-72
2022/01/03 05:54:59;;;;;;;25.67;3.85;;;8.60;99.90;;;;;;4994762;28;20037;-71
2022/01/03 05:57:25;;;;;;;24.13;3.65;;;8.60;99.90;;;;;;4997469;28;20087;-72
2022/01/03 05:59:51;;;;;;;23.63;3.92;;;8.60;99.90;;;;;;4998498;28;20022;-73
2022/01/03 06:02:17;;;;;;;20.60;3.90;;;8.60;99.90;;;;;;4961418;28;20518;-71
2022/01/03 06:07:19;;;;;;;22.95;3.95;;;8.60;99.90;;;;;;4997425;28;20022;-72
2022/01/03 06:09:45;;;;;;;17.35;3.67;;;8.60;99.90;;;;;;4995577;28;20105;-72
2022/01/03 06:12:10;;;;;;;26.75;4.47;;;8.60;99.90;;;;;;4997626;28;20077;-71
2022/01/03 06:14:37;;;;;;;26.35;3.95;;;8.70;99.90;;;;;;4975710;28;20056;-71
2022/01/03 06:17:04;;;;;;;19.35;3.30;;;8.60;99.90;;;;;;4995244;28;20030;-71
2022/01/03 06:19:32;;;;;;;31.42;4.63;;;8.70;99.90;;;;;;4998423;28;20033;-71
2022/01/03 06:22:01;;;;;;;29.20;4.07;;;8.70;99.90;;;;;;4995463;28;20116;-72
2022/01/03 06:24:26;;;;;;;28.33;4.78;;;8.60;99.90;;;;;;5000192;28;20129;-72
2022/01/03 06:26:52;;;;;;;20.45;3.28;;;8.60;99.90;;;;;;4996252;28;20540;-71
2022/01/03 06:29:19;;;;;;;26.15;3.85;;;8.60;99.90;;;;;;4998027;28;20054;-71
2022/01/03 06:31:46;;;;;;;30.85;3.83;;;8.60;99.90;;;;;;4994875;28;20057;-72
2022/01/03 06:34:12;;;;;;;28.65;4.45;;;8.60;99.90;;;;;;4994132;28;20034;-72
2022/01/03 06:36:38;;;;;;;24.42;4.45;;;8.60;99.90;;;;;;4994668;28;20080;-72
2022/01/03 06:39:05;;;;;;;24.40;4.60;;;8.60;99.90;;;;;;4993459;28;20057;-72
2022/01/03 06:41:31;;;;;;;26.55;5.00;;;8.60;99.90;;;;;;4993955;28;20193;-71
2022/01/03 06:43:57;;;;;;;21.50;3.60;;;8.60;99.90;;;;;;4992635;28;20113;-71
2022/01/03 06:46:23;;;;;;;25.60;4.78;;;8.70;99.90;;;;;;4998423;28;20105;-73
2022/01/03 06:48:49;;;;;;;26.20;4.78;;;8.70;99.90;;;;;;4995573;28;20121;-71
2022/01/03 06:51:16;;;;;;;27.25;4.03;;;8.70;99.90;;;;;;4993106;28;20034;-71
2022/01/03 06:53:42;;;;;;;30.95;5.05;;;8.70;99.90;;;;;;4994274;28;20026;-72
2022/01/03 06:56:08;;;;;;;25.70;3.67;;;8.70;99.90;;;;;;4991624;28;20500;-76
2022/01/03 06:58:34;;;;;;;27.13;4.50;;;8.70;99.90;;;;;;4977278;28;20034;-76
2022/01/03 07:01:00;;;;;;;35.53;4.72;;;8.70;99.90;;;;;;4980870;28;20038;-76
2022/01/03 07:03:26;;;;;;;25.13;3.97;;;8.70;99.90;;;;;;4996889;28;20025;-76
2022/01/03 07:05:52;;;;;;;24.80;4.15;;;8.70;99.90;;;;;;4980034;28;21039;-76
2022/01/03 07:08:21;;;;;;;28.45;4.18;;;8.70;99.90;;;;;;4976665;28;20023;-77
2022/01/03 07:10:47;;;;;;;19.42;3.17;;;8.70;99.90;;;;;;4997307;28;20553;-76
2022/01/03 07:13:13;;;;;;;21.88;3.80;;;8.70;99.90;;;;;;4976337;28;20026;-76
2022/01/03 07:21:28;;;;;;;24.95;3.58;;;8.80;99.90;;;;;;4948914;28;20107;-78
2022/01/03 07:23:55;;;;;;;17.58;4.13;;;8.70;99.90;;;;;;4931695;29;20156;-78
2022/01/03 07:26:21;;;;;;;20.75;3.53;;;8.80;99.90;;;;;;4948724;28;20141;-77
2022/01/03 07:28:47;;;;;;;23.02;4.25;;;8.80;99.90;;;;;;4950493;28;20111;-78
2022/01/03 07:31:13;;;;;;;18.42;4.28;;;8.80;99.90;;;;;;4949021;28;20102;-77
2022/01/03 07:33:38;;;;;;;28.50;3.85;;;8.80;99.90;;;;;;4960533;28;20086;-77
2022/01/03 07:36:04;;;;;;;29.70;5.40;;;8.80;99.90;;;;;;4952827;29;20031;-76
2022/01/03 07:38:30;;;;;;;21.38;4.00;;;8.80;99.90;;;;;;4952294;28;20071;-77
2022/01/03 07:40:57;;;;;;;27.35;3.63;;;8.80;99.90;;;;;;4948804;28;20058;-76
2022/01/03 07:43:22;;;;;;;34.30;4.72;;;8.80;99.90;;;;;;4950471;28;20035;-77
2022/01/03 07:45:48;;;;;;;38.17;5.47;;;8.70;99.90;;;;;;4945441;28;20596;-78
2022/01/03 07:48:14;;;;;;;33.05;4.47;;;8.70;99.90;;;;;;4953330;29;20078;-77
2022/01/03 07:50:39;;;;;;;23.75;4.68;;;8.70;99.90;;;;;;4945227;28;20070;-77
2022/01/03 07:53:05;;;;;;;26.88;3.83;;;8.70;99.90;;;;;;4991359;28;20038;-78
2022/01/03 07:55:31;;;;;;;28.30;4.10;;;8.80;99.90;;;;;;4996915;28;20026;-77
2022/01/03 07:57:57;;;;;;;24.13;4.45;;;8.80;99.90;;;;;;4998340;28;20038;-76
2022/01/03 08:00:23;;;;;;;24.50;3.95;;;8.70;99.90;;;;;;4993270;28;20041;-76
2022/01/03 08:02:49;;;;;;;29.27;3.72;;;8.80;99.90;;;;;;4992751;28;20038;-76
2022/01/03 08:05:15;;;;;;;25.08;4.88;;;8.80;99.90;;;;;;4977510;28;20018;-76
2022/01/03 08:07:47;;;;;;;27.05;4.82;;;8.80;99.90;;;;;;4996168;28;20419;-77
2022/01/03 08:10:14;;;;;;;31.00;4.47;;;8.70;99.90;;;;;;4976922;28;20653;-71
2022/01/03 08:12:40;;;;;;;34.88;5.45;;;8.70;99.90;;;;;;4992768;28;20083;-71
2022/01/03 08:15:07;;;;;;;40.28;4.30;;;8.70;99.90;;;;;;4994034;28;20085;-71
2022/01/03 08:17:34;;;;;;;24.33;3.97;;;8.70;99.90;;;;;;4995649;28;20026;-72
2022/01/03 08:20:00;;;;;;;17.95;3.80;;;8.60;99.90;;;;;;4974806;28;20041;-71
2022/01/03 08:22:26;;;;;;;33.88;4.47;;;8.60;99.90;;;;;;4992726;28;20084;-71
2022/01/03 08:24:52;;;;;;;27.38;4.50;;;8.60;99.90;;;;;;4992402;28;20061;-72
2022/01/03 08:27:17;;;;;;;32.60;4.60;;;8.60;99.90;;;;;;4993158;28;20033;-70
2022/01/03 08:29:43;;;;;;;27.15;3.83;;;8.60;99.90;;;;;;4994437;28;20101;-72
2022/01/03 08:32:09;;;;;;;30.67;4.15;;;8.50;99.90;;;;;;4993486;28;20034;-71
2022/01/03 08:34:35;;;;;;;36.40;4.93;;;8.50;99.90;;;;;;4978077;28;20057;-71
2022/01/03 08:37:00;;;;;;;25.92;4.45;;;8.50;99.90;;;;;;4991458;28;20395;-71
2022/01/03 08:39:27;;;;;;;25.95;4.05;;;8.60;99.90;;;;;;4991640;28;20073;-71
2022/01/03 08:41:53;;;;;;;26.63;4.95;;;8.70;99.90;;;;;;4999626;28;20018;-71
2022/01/03 08:44:18;;;;;;;15.98;4.30;;;8.60;99.90;;;;;;4996509;28;20416;-71
2022/01/03 08:46:46;;;;;;;27.95;4.28;;;8.60;99.90;;;;;;4997876;28;20109;-71
2022/01/03 08:49:13;;;;;;;22.27;4.30;;;8.60;99.90;;;;;;4997969;28;20022;-71
2022/01/03 08:51:38;;;;;;;33.33;5.72;;;8.60;99.90;;;;;;4994231;28;20048;-70
2022/01/03 08:54:04;;;;;;;23.80;3.50;;;8.60;99.90;;;;;;4991470;28;20018;-71
2022/01/03 08:56:30;;;;;;;38.35;6.05;;;8.70;99.90;;;;;;4975621;28;20038;-71
2022/01/03 08:58:56;;;;;;;30.38;4.60;;;8.70;99.90;;;;;;4992210;28;20042;-71
2022/01/03 09:01:21;;;;;;;22.52;3.60;;;8.70;99.90;;;;;;4992713;28;20034;-71
2022/01/03 09:03:50;;;;;;;35.90;4.30;;;8.80;99.90;;;;;;4994162;28;20034;-72
2022/01/03 09:06:19;;;;;;;22.77;4.15;;;8.80;99.90;;;;;;4994500;28;20042;-72
2022/01/03 09:08:46;;;;;;;31.50;4.22;;;8.80;99.90;;;;;;4979847;28;20030;-71
2022/01/03 09:11:12;;;;;;;33.30;4.97;;;8.80;99.90;;;;;;4999646;28;20395;-72
2022/01/03 09:13:38;;;;;;;26.85;4.32;;;8.80;99.90;;;;;;4995581;28;20027;-72
2022/01/03 09:16:07;;;;;;;24.02;4.03;;;8.80;99.90;;;;;;4994788;28;20047;-72
2022/01/03 09:18:37;;;;;;;26.55;3.50;;;8.80;99.90;;;;;;4996089;28;20492;-72
2022/01/03 09:21:03;;;;;;;36.47;5.97;;;8.90;99.90;;;;;;4977553;28;20065;-73
2022/01/03 09:23:34;;;;;;;31.80;4.68;;;8.90;99.90;;;;;;4996179;28;20085;-73
2022/01/03 09:28:53;;;;;;;36.67;5.47;;;8.90;99.90;;;;;;4994296;28;20373;-71
2022/01/03 09:31:28;;;;;;;27.10;4.22;;;8.90;99.90;;;;;;4993725;28;20034;-71
2022/01/03 09:33:57;;;;;;;21.20;4.03;;;8.90;99.90;;;;;;4995376;28;20048;-72
2022/01/03 09:36:24;;;;;;;31.65;5.18;;;8.90;99.90;;;;;;4994572;28;20116;-72
2022/01/03 09:38:50;;;;;;;25.45;3.90;;;8.80;99.90;;;;;;4977694;28;20354;-72
2022/01/03 09:41:19;;;;;;;29.20;4.90;;;8.80;99.90;;;;;;4995946;28;20113;-72
2022/01/03 09:44:00;;;;;;;23.67;4.13;;;8.80;99.90;;;;;;4994521;28;20038;-72
2022/01/03 09:46:31;;;;;;;35.67;5.17;;;8.80;99.90;;;;;;4995474;28;20030;-72
2022/01/03 09:48:57;;;;;;;31.13;5.18;;;8.70;99.90;;;;;;4981557;28;20798;-72
2022/01/03 09:51:27;;;;;;;24.23;4.00;;;8.70;99.90;;;;;;4994179;28;20038;-72
2022/01/03 09:53:55;;;;;;;22.92;5.30;;;8.80;99.90;;;;;;4992878;28;20599;-72
2022/01/03 09:56:22;;;;;;;29.00;5.05;;;8.80;99.90;;;;;;4975575;28;20034;-72
2022/01/03 09:58:48;;;;;;;32.15;5.78;;;8.70;99.90;;;;;;4992644;28;20021;-71
2022/01/03 10:01:14;;;;;;;22.77;4.50;;;8.80;99.90;;;;;;4990274;28;20038;-72
2022/01/03 10:03:47;;;;;;;22.50;4.00;;;8.90;99.90;;;;;;4991591;28;20105;-71
2022/01/03 10:06:13;;;;;;;22.52;4.85;;;8.90;99.90;;;;;;4992445;28;20026;-72
2022/01/03 10:08:39;;;;;;;25.20;6.20;;;8.80;99.90;;;;;;4990739;28;20075;-72
2022/01/03 10:11:05;;;;;;;32.40;5.40;;;8.80;99.90;;;;;;4993171;28;20508;-73
2022/01/03 10:13:32;;;;;;;34.97;5.40;;;8.80;99.90;;;;;;4978613;28;20201;-72
2022/01/03 10:15:58;;;;;;;27.80;5.00;;;8.80;99.90;;;;;;4994444;28;20107;-73
2022/01/03 10:18:44;;;;;;;27.85;5.03;;;8.80;99.90;;;;;;4996431;28;20058;-72
2022/01/03 10:21:09;;;;;;;23.50;5.03;;;8.80;99.90;;;;;;4934716;29;20758;-71
2022/01/03 10:23:45;;;;;;;25.25;4.93;;;8.90;99.90;;;;;;4937276;29;20490;-72
2022/01/03 10:26:15;;;;;;;29.65;4.85;;;8.90;99.90;;;;;;4934283;29;20039;-79
2022/01/03 10:28:41;;;;;;;28.75;4.20;;;8.90;99.90;;;;;;4935157;29;20175;-71
2022/01/03 10:31:18;;;;;;;24.45;4.68;;;8.90;99.90;;;;;;4936007;29;20399;-72
2022/01/03 10:33:45;;;;;;;26.58;4.75;;;8.90;99.90;;;;;;4919201;29;20071;-72
2022/01/03 10:36:30;;;;;;;24.95;3.80;;;8.90;99.90;;;;;;4916569;29;20032;-72
2022/01/03 10:38:57;;;;;;;29.30;4.28;;;8.90;99.90;;;;;;4934305;29;20048;-72
2022/01/03 10:41:24;;;;;;;27.75;4.25;;;8.80;99.90;;;;;;4936481;29;20438;-72
2022/01/03 10:43:50;;;;;;;27.52;4.45;;;8.80;99.90;;;;;;4937795;29;20126;-72
2022/01/03 10:46:30;;;;;;;26.55;4.10;;;8.70;99.90;;;;;;4934626;29;20414;-72
2022/01/03 10:49:16;;;;;;;26.38;4.32;;;8.80;99.90;;;;;;4933468;29;20067;-72
2022/01/03 10:51:42;;;;;;;19.83;4.22;;;8.80;99.90;;;;;;4939513;29;20047;-71
2022/01/03 10:54:13;;;;;;;29.10;4.95;;;8.90;99.90;;;;;;4914692;29;20039;-70
2022/01/03 10:56:42;;;;;;;22.52;5.22;;;9.00;99.90;;;;;;4933218;29;20032;-70
2022/01/03 10:59:14;;;;;;;24.65;5.82;;;9.00;99.90;;;;;;4984869;28;20095;-70
2022/01/03 11:01:41;;;;;;;30.50;4.47;;;9.10;99.90;;;;;;4992357;28;20544;-71
2022/01/03 11:04:07;;;;;;;30.55;4.97;;;9.10;99.90;;;;;;4994109;28;20026;-72
2022/01/03 11:11:46;;;;;;;21.55;4.07;;;9.10;99.90;;;;;;4997119;28;20037;-70
2022/01/03 11:14:33;;;;;;;23.63;4.05;;;9.10;99.90;;;;;;4995392;28;20084;-71
2022/01/03 11:17:01;;;;;;;23.85;5.07;;;9.10;99.90;;;;;;4996287;28;20044;-71
2022/01/03 11:19:38;;;;;;;23.35;5.15;;;9.20;99.90;;;;;;4980705;28;20034;-71
2022/01/03 11:22:04;;;;;;;31.90;5.10;;;9.30;99.90;;;;;;4994754;28;20523;-74
2022/01/03 11:24:29;;;;;;;34.47;4.72;;;9.30;99.90;;;;;;4999191;28;20101;-72
2022/01/03 11:26:56;;;;;;;23.70;5.20;;;9.30;99.90;;;;;;5002321;28;20030;-70
2022/01/03 11:29:22;;;;;;;24.80;5.00;;;9.30;99.90;;;;;;4996295;28;20112;-72
2022/01/03 11:31:52;;;;;;;28.92;5.20;;;9.30;99.90;;;;;;4997678;28;20527;-71
2022/01/03 11:34:24;;;;;;;25.38;5.03;;;9.30;99.90;;;;;;4998961;28;20129;-70
2022/01/03 11:36:50;;;;;;;29.30;4.70;;;9.40;99.90;;;;;;5002318;28;20044;-72
2022/01/03 11:39:21;;;;;;;19.98;4.40;;;9.50;99.90;;;;;;4994777;28;20489;-72
2022/01/03 11:41:47;;;;;;;32.63;4.15;;;9.50;99.90;;;;;;4991336;28;20030;-70
2022/01/03 11:44:15;;;;;;;30.02;4.28;;;9.50;99.90;;;;;;4995810;28;20019;-69
2022/01/03 11:46:45;;;;;;;22.30;4.53;;;9.50;99.90;;;;;;4990795;28;20033;-73
2022/01/03 11:49:12;;;;;;;21.92;4.38;;;9.50;99.90;;;;;;4994793;28;20552;-69
2022/01/03 11:51:39;;;;;;;32.83;5.28;;;9.60;99.90;;;;;;4999059;28;20100;-70
2022/01/03 11:54:06;;;;;;;33.13;5.90;;;9.60;99.90;;;;;;4999538;28;20062;-70
2022/01/03 11:56:36;;;;;;;28.30;4.55;;;9.60;99.90;;;;;;4998245;28;20030;-71
2022/01/03 12:04:30;;;;;;;29.17;4.68;;;9.50;99.90;;;;;;4996778;28;20026;-70
2022/01/03 12:07:14;;;;;;;32.55;4.82;;;9.40;99.90;;;;;;4995397;28;20583;-71
2022/01/03 12:09:50;;;;;;;25.08;4.68;;;9.50;99.90;;;;;;4992527;28;20034;-71
2022/01/03 12:12:31;;;;;;;23.83;4.47;;;9.40;99.90;;;;;;4994429;28;20034;-70
2022/01/03 12:15:01;;;;;;;27.33;5.13;;;9.30;99.90;;;;;;4994004;28;20058;-71
2022/01/03 12:17:58;;;;;;;31.58;5.55;;;9.30;99.90;;;;;;4992799;28;20033;-72
2022/01/03 12:20:38;;;;;;;20.48;3.25;;;9.30;99.90;;;;;;4978938;28;20046;-71
2022/01/03 12:23:04;;;;;;;24.98;3.83;;;9.40;99.90;;;;;;4999330;28;20037;-70
2022/01/03 12:25:32;;;;;;;21.83;4.18;;;9.40;99.90;;;;;;4993765;28;20063;-70
2022/01/03 12:28:04;;;;;;;31.35;3.97;;;9.50;99.90;;;;;;4998821;28;20096;-71
2022/01/03 12:30:30;;;;;;;;;;;9.50;99.90;;;;;;4995815;28;21436;-70
2022/01/03 12:33:08;;;;;;;20.42;3.50;;;9.50;99.90;;;;;;4996986;28;19905;-74
2022/01/03 12:35:35;;;;;;;23.15;4.28;;;9.50;99.90;;;;;;4997414;28;20611;-71
2022/01/03 12:38:04;;;;;;;22.80;4.18;;;9.40;99.90;;;;;;4997368;28;20040;-71
2022/01/03 12:40:46;;;;;;;26.20;3.78;;;9.40;99.90;;;;;;5000281;28;20052;-71
2022/01/03 12:43:15;;;;;;;19.98;4.97;;;9.40;99.90;;;;;;5001615;28;20041;-71
2022/01/03 12:45:42;;;;;;;25.23;3.72;;;9.30;99.90;;;;;;4997694;28;20018;-70
2022/01/03 12:48:08;;;;;;;23.88;4.07;;;9.40;99.90;;;;;;4993490;28;20463;-71
2022/01/03 12:50:34;;;;;;;31.75;4.70;;;9.50;99.90;;;;;;4993737;28;20022;-71
2022/01/03 12:53:02;;;;;;;20.80;3.40;;;9.40;99.90;;;;;;4993424;28;20118;-73
2022/01/03 12:55:36;;;;;;;19.25;4.00;;;9.50;99.90;;;;;;4994052;28;20484;-71
2022/01/03 12:58:22;;;;;;;27.85;4.68;;;9.50;99.90;;;;;;4996207;28;20480;-70
2022/01/03 13:00:49;;;;;;;20.23;3.70;;;9.50;99.90;;;;;;4954271;28;20036;-70
2022/01/03 13:03:40;;;;;;;23.50;3.92;;;9.50;99.90;;;;;;4997470;28;20475;-72
2022/01/03 13:06:05;;;;;;;27.27;4.43;;;9.60;99.90;;;;;;4994053;28;20054;-72
2022/01/03 13:08:36;;;;;;;21.00;3.53;;;9.60;99.90;;;;;;4996614;28;20080;-72
2022/01/03 13:11:11;;;;;;;18.23;3.58;;;9.70;99.90;;;;;;4997323;28;20034;-71
2022/01/03 13:13:38;;;;;;;23.00;4.30;;;9.70;99.90;;;;;;4996754;28;20113;-71
2022/01/03 13:16:23;;;;;;;27.55;5.38;;;9.70;99.90;;;;;;4996902;28;20062;-70
2022/01/03 13:18:57;;;;;;;19.27;4.05;;;9.80;99.90;;;;;;4995127;28;20026;-70